createdAt,value
2018-04-07T00:04:49.501Z,70.36
2018-04-07T00:09:48.007Z,69.21
2018-04-07T00:14:43.547Z,73.44
2018-04-07T00:19:40.285Z,69.98
2018-04-07T00:24:40.245Z,69.60
2018-04-07T00:29:34.864Z,68.55
2018-04-07T00:34:30.860Z,70.93
2018-04-07T00:39:31.387Z,69.12
2018-04-07T00:44:26.326Z,73.11
2018-04-07T00:49:22.198Z,71.31
2018-04-07T00:54:17.954Z,73.44
2018-04-07T00:59:13.638Z,71.22
2018-04-07T01:04:10.320Z,71.22
2018-04-07T01:09:06.835Z,73.21
2018-04-07T01:14:06.149Z,70.23
2018-04-07T01:19:00.967Z,71.84
2018-04-07T01:23:56.768Z,72.99
2018-04-07T01:28:56.227Z,72.13
2018-04-07T01:33:56.788Z,71.84
2018-04-07T01:38:52.399Z,74.60
2018-04-07T01:43:48.748Z,75.84
2018-04-07T01:48:44.171Z,73.08
2018-04-07T01:53:40.138Z,73.08
2018-04-07T01:58:35.883Z,73.84
2018-04-07T02:03:31.578Z,73.08
2018-04-07T02:08:31.232Z,74.41
2018-04-07T02:13:31.135Z,73.36
2018-04-07T02:18:30.405Z,73.80
2018-04-07T02:23:25.138Z,74.22
2018-04-07T02:28:20.967Z,73.33
2018-04-07T02:33:17.740Z,73.90
2018-04-07T02:38:17.004Z,74.37
2018-04-07T02:43:12.011Z,75.04
2018-04-07T02:48:08.090Z,74.47
2018-04-07T02:53:04.918Z,73.99
2018-04-07T02:58:01.247Z,72.85
2018-04-07T03:02:57.087Z,73.33
2018-04-07T03:07:56.746Z,73.52
2018-04-07T03:12:55.844Z,74.75
2018-04-07T03:17:50.785Z,73.23
2018-04-07T03:22:46.384Z,74.18
2018-04-07T03:27:42.933Z,75.89
2018-04-07T03:32:38.398Z,74.56
2018-04-07T03:37:38.071Z,75.60
2018-04-07T03:42:38.033Z,74.94
2018-04-07T03:47:37.608Z,75.04
2018-04-07T03:52:36.439Z,75.70
2018-04-07T03:57:31.270Z,75.60
2018-04-07T04:02:27.576Z,75.89
2018-04-07T04:07:25.023Z,76.08
2018-04-07T04:12:24.382Z,75.70
2018-04-07T04:17:23.030Z,76.56
2018-04-07T04:22:17.781Z,77.31
2018-04-07T04:27:13.794Z,76.65
2018-04-07T04:32:09.598Z,76.84
2018-04-07T04:37:09.172Z,78.27
2018-04-07T04:42:04.858Z,78.32
2018-04-07T04:47:01.352Z,78.03
2018-04-07T04:51:56.984Z,80.69
2018-04-07T04:56:53.684Z,77.75
2018-04-07T05:01:50.221Z,78.99
2018-04-07T05:06:46.800Z,78.99
2018-04-07T05:11:43.137Z,79.27
2018-04-07T05:16:43.872Z,79.50
2018-04-07T05:21:43.818Z,79.31
2018-04-07T05:26:38.669Z,78.17
2018-04-07T05:31:39.370Z,77.22
2018-04-07T05:36:35.412Z,76.46
2018-04-07T05:41:32.016Z,76.78
2018-04-07T05:46:27.643Z,76.31
2018-04-07T05:51:23.593Z,73.97
2018-04-07T05:56:19.704Z,73.63
2018-04-07T06:01:19.571Z,72.11
2018-04-07T06:06:14.766Z,71.00
2018-04-07T06:11:15.042Z,71.15
2018-04-07T06:16:13.953Z,70.97
2018-04-07T06:21:14.092Z,70.52
2018-04-07T06:26:09.025Z,69.13
2018-04-07T06:31:04.952Z,70.33
2018-04-07T06:36:01.132Z,69.70
2018-04-07T06:41:02.306Z,68.59
2018-04-07T06:46:01.243Z,67.55
2018-04-07T06:50:57.849Z,66.05
2018-04-07T06:55:55.087Z,65.04
2018-04-07T07:00:50.979Z,64.75
2018-04-07T07:05:46.904Z,64.47
2018-04-07T07:10:43.086Z,65.52
2018-04-07T07:15:42.722Z,66.09
2018-04-07T07:20:37.864Z,65.93
2018-04-07T07:25:38.349Z,65.07
2018-04-07T07:30:35.085Z,64.43
2018-04-07T07:35:34.459Z,65.17
2018-04-07T07:40:29.507Z,65.01
2018-04-07T07:45:30.892Z,63.20
2018-04-07T07:50:26.213Z,62.62
2018-04-07T07:55:22.731Z,62.37
2018-04-07T08:00:21.093Z,61.89
2018-04-07T08:05:18.478Z,61.16
2018-04-07T08:10:22.558Z,60.42
2018-04-07T08:15:21.200Z,58.92
2018-04-07T08:20:18.833Z,57.68
2018-04-07T08:25:16.215Z,59.20
2018-04-07T08:30:12.060Z,57.70
2018-04-07T08:35:08.454Z,58.76
2018-04-07T08:40:04.254Z,58.76
2018-04-07T08:45:00.378Z,60.19
2018-04-07T08:50:01.322Z,60.64
2018-04-07T08:54:57.081Z,61.25
2018-04-07T08:59:53.384Z,60.22
2018-04-07T09:04:51.096Z,59.65
2018-04-07T09:09:50.707Z,60.35
2018-04-07T09:14:49.741Z,59.08
2018-04-07T09:19:49.786Z,57.95
2018-04-07T09:24:48.354Z,55.21
2018-04-07T09:29:48.131Z,54.56
2018-04-07T09:34:48.009Z,55.04
2018-04-07T09:39:43.624Z,52.45
2018-04-07T09:44:39.044Z,52.38
2018-04-07T09:49:36.835Z,52.79
2018-04-07T09:54:36.332Z,50.80
2018-04-07T09:59:31.872Z,49.93
2018-04-07T10:09:38.599Z,48.47
2018-04-07T10:14:39.398Z,46.86
2018-04-07T10:19:36.634Z,46.57
2018-04-07T10:24:33.341Z,44.40
2018-04-07T10:29:31.336Z,43.07
2018-04-07T10:34:30.142Z,43.37
2018-04-07T10:39:27.336Z,42.61
2018-04-07T10:44:23.645Z,42.83
2018-04-07T10:49:20.135Z,41.78
2018-04-07T10:54:21.668Z,42.05
2018-04-07T10:59:18.966Z,41.28
2018-04-07T11:04:14.372Z,41.75
2018-04-07T11:09:15.742Z,40.63
2018-04-07T11:14:11.655Z,40.40
2018-04-07T11:19:08.635Z,39.55
2018-04-07T11:24:09.207Z,38.29
2018-04-07T11:29:08.953Z,38.58
2018-04-07T11:34:11.426Z,36.86
2018-04-07T11:39:11.783Z,36.88
2018-04-07T11:44:08.732Z,35.64
2018-04-07T11:49:11.085Z,35.27
2018-04-07T11:54:06.334Z,35.72
2018-04-07T11:59:02.640Z,37.17
2018-04-07T12:04:04.981Z,37.30
2018-04-07T12:09:03.454Z,37.13
2018-04-07T12:14:03.085Z,38.18
2018-04-07T12:19:01.712Z,37.24
2018-04-07T12:23:57.389Z,35.62
2018-04-07T12:28:53.552Z,35.52
2018-04-07T12:33:53.075Z,36.74
2018-04-07T12:38:47.671Z,36.07
2018-04-07T12:43:47.972Z,34.81
2018-04-07T12:48:46.645Z,34.45
2018-04-07T12:53:48.726Z,34.75
2018-04-07T12:58:48.288Z,33.18
2018-04-07T13:03:42.505Z,32.20
2018-04-07T13:08:41.876Z,33.45
2018-04-07T13:13:41.625Z,32.49
2018-04-07T13:18:36.540Z,33.37
2018-04-07T13:23:33.803Z,31.18
2018-04-07T13:28:30.827Z,30.11
2018-04-07T13:33:38.525Z,30.69
2018-04-07T13:38:31.204Z,31.15
2018-04-07T13:43:26.719Z,32.12
2018-04-07T13:48:22.669Z,31.52
2018-04-07T13:53:18.238Z,31.99
2018-04-07T13:58:14.005Z,32.57
2018-04-07T14:03:14.771Z,32.09
2018-04-07T14:08:14.342Z,30.46
2018-04-07T14:13:10.588Z,29.80
2018-04-07T14:18:10.821Z,28.55
2018-04-07T14:23:06.006Z,29.71
2018-04-07T14:28:07.101Z,29.03
2018-04-07T14:33:02.596Z,28.73
2018-04-07T14:38:02.757Z,30.18
2018-04-07T14:43:03.108Z,29.32
2018-04-07T14:48:04.029Z,29.90
2018-04-07T14:53:02.943Z,28.25
2018-04-07T14:57:57.949Z,28.25
2018-04-07T15:02:55.194Z,28.33
2018-04-07T15:07:50.670Z,28.04
2018-04-07T15:12:51.461Z,27.36
2018-04-07T15:17:51.494Z,27.26
2018-04-07T15:22:50.490Z,27.08
2018-04-07T15:32:49.291Z,27.55
2018-04-07T15:37:48.800Z,27.64
2018-04-07T15:42:48.652Z,27.55
2018-04-07T15:47:43.625Z,26.48
2018-04-07T15:52:39.708Z,26.57
2018-04-07T15:57:35.765Z,26.97
2018-04-07T16:02:32.012Z,27.15
2018-04-07T16:07:29.126Z,27.06
2018-04-07T16:12:25.098Z,27.64
2018-04-07T16:17:20.943Z,27.24
2018-04-07T16:22:21.961Z,26.97
2018-04-07T16:27:16.719Z,29.85
2018-04-07T16:32:13.284Z,31.40
2018-04-07T16:37:09.228Z,31.98
2018-04-07T16:42:06.133Z,32.15
2018-04-07T16:47:06.690Z,32.82
2018-04-07T16:52:01.394Z,33.70
2018-04-07T16:57:03.283Z,33.02
2018-04-07T17:02:02.887Z,33.98
2018-04-07T17:07:03.571Z,34.08
2018-04-07T17:11:59.501Z,34.55
2018-04-07T17:16:55.124Z,35.52
2018-04-07T17:21:51.002Z,35.80
2018-04-07T17:26:49.089Z,38.10
2018-04-07T17:31:49.841Z,37.81
2018-04-07T17:36:44.620Z,40.90
2018-04-07T17:41:41.449Z,39.43
2018-04-07T17:46:37.992Z,42.32
2018-04-07T17:51:34.613Z,41.05
2018-04-07T17:56:30.192Z,42.21
2018-04-07T18:01:29.926Z,43.65
2018-04-07T18:06:26.424Z,43.65
2018-04-07T18:11:27.350Z,43.63
2018-04-07T18:16:26.853Z,54.97
2018-04-07T18:21:26.271Z,50.83
2018-04-07T18:26:24.861Z,48.59
2018-04-07T18:31:20.026Z,46.77
2018-04-07T18:36:19.564Z,45.70
2018-04-07T18:41:14.929Z,48.28
2018-04-07T18:46:14.617Z,55.98
2018-04-07T18:51:13.535Z,68.35
2018-04-07T18:56:13.386Z,61.81
2018-04-07T19:01:07.992Z,73.63
2018-04-07T19:06:03.739Z,59.12
2018-04-07T19:11:03.364Z,53.03
2018-04-07T19:16:03.541Z,52.55
2018-04-07T19:20:58.552Z,54.74
2018-04-07T19:25:55.072Z,55.38
2018-04-07T19:30:50.333Z,56.05
2018-04-07T19:35:47.051Z,59.58
2018-04-07T19:40:42.637Z,64.28
2018-04-07T19:45:43.782Z,69.46
2018-04-07T19:50:38.736Z,73.00
2018-04-07T19:55:34.738Z,72.05
2018-04-07T20:00:34.273Z,65.05
2018-04-07T20:05:33.136Z,60.35
2018-04-07T20:10:28.822Z,60.85
2018-04-07T20:15:25.099Z,65.27
2018-04-07T20:20:22.679Z,75.06
2018-04-07T20:25:18.168Z,59.38
2018-04-07T20:30:13.942Z,67.44
2018-04-07T20:35:10.557Z,63.22
2018-04-07T20:40:06.127Z,67.44
2018-04-07T20:45:02.749Z,70.32
2018-04-07T20:50:02.243Z,67.22
2018-04-07T20:54:58.122Z,70.67
2018-04-07T20:59:58.011Z,72.24
2018-04-07T21:04:57.353Z,67.79
2018-04-07T21:09:53.262Z,70.96
2018-04-07T21:14:49.914Z,64.15
2018-04-07T21:19:46.376Z,62.23
2018-04-07T21:24:42.049Z,64.43
2018-04-07T21:29:38.325Z,60.12
2018-04-07T21:34:38.067Z,61.75
2018-04-07T21:39:34.195Z,61.46
2018-04-07T21:44:29.356Z,62.52
2018-04-07T21:49:28.916Z,62.13
2018-04-07T21:54:27.883Z,66.26
2018-04-07T21:59:22.801Z,66.61
2018-04-07T22:04:23.220Z,61.88
2018-04-07T22:09:22.029Z,63.42
2018-04-07T22:14:18.673Z,65.97
2018-04-07T22:19:15.025Z,79.37
2018-04-07T22:24:10.634Z,75.01
2018-04-07T22:29:06.535Z,73.95
2018-04-07T22:34:02.691Z,75.29
2018-04-07T22:38:58.560Z,81.43
2018-04-07T22:43:55.069Z,76.54
2018-04-07T22:48:51.944Z,76.35
2018-04-07T22:53:51.349Z,76.25
2018-04-07T22:58:50.342Z,72.80
2018-04-07T23:03:49.464Z,75.20
2018-04-07T23:08:48.328Z,75.64
2018-04-07T23:13:44.268Z,78.22
2018-04-07T23:18:40.875Z,77.26
2018-04-07T23:23:37.234Z,70.72
2018-04-07T23:28:32.686Z,70.30
2018-04-07T23:33:32.953Z,71.26
2018-04-07T23:38:28.849Z,76.00
2018-04-07T23:43:25.353Z,73.71
2018-04-07T23:48:25.674Z,75.91
2018-04-07T23:53:20.427Z,73.80
2018-04-07T23:58:16.215Z,75.34
